Time;durP1;ratioP1;P1;durP2;ratioP2;P2;SDS_P1;SDS_P2;PMS_P1;PMS_P2;Temp;Humidity;BMP_temperature;BMP_pressure;BME280_temperature;BME280_humidity;BME280_pressure;Samples;Min_cycle;Max_cycle;Signal;HPM_P1;HPM_P2
2021/06/04 00:01:10;;;;;;;48.70;27.70;;;18.80;97.20;;;;;;5036358;28;20415;-78
2021/06/04 00:03:37;;;;;;;52.75;29.05;;;18.80;97.20;;;;;;5073258;28;20048;-78
2021/06/04 00:06:05;;;;;;;47.95;28.92;;;18.70;97.30;;;;;;5038914;28;20401;-79
2021/06/04 00:08:32;;;;;;;53.40;29.05;;;18.70;97.50;;;;;;5038283;28;20049;-78
2021/06/04 00:11:03;;;;;;;52.53;29.98;;;18.70;97.60;;;;;;5042066;28;20114;-77
2021/06/04 00:13:34;;;;;;;52.63;29.70;;;18.60;97.60;;;;;;5037128;28;20469;-78
2021/06/04 00:16:04;;;;;;;52.58;30.08;;;18.60;97.90;;;;;;5044318;28;20041;-78
2021/06/04 00:18:33;;;;;;;54.97;30.38;;;18.60;98.00;;;;;;5038267;28;20404;-78
2021/06/04 00:21:01;;;;;;;57.38;31.30;;;18.60;98.00;;;;;;5058416;28;20053;-78
2021/06/04 00:23:28;;;;;;;51.25;29.80;;;18.50;98.20;;;;;;5040448;28;20053;-79
2021/06/04 00:25:58;;;;;;;51.47;30.42;;;18.40;98.30;;;;;;5043656;28;20112;-78
2021/06/04 00:28:26;;;;;;;49.88;29.65;;;18.40;98.50;;;;;;5042185;28;20049;-77
2021/06/04 00:30:54;;;;;;;50.90;29.50;;;18.30;98.70;;;;;;5040128;28;20544;-78
2021/06/04 00:33:21;;;;;;;51.28;28.60;;;18.30;98.90;;;;;;5039293;28;20038;-78
2021/06/04 00:35:48;;;;;;;50.67;30.35;;;18.20;99.00;;;;;;5041443;28;20064;-78
2021/06/04 00:38:15;;;;;;;47.05;28.70;;;18.20;99.10;;;;;;5053111;28;20052;-77
2021/06/04 00:40:49;;;;;;;49.78;29.50;;;18.20;99.20;;;;;;5043562;28;20080;-78
2021/06/04 00:43:16;;;;;;;47.75;27.95;;;18.20;99.50;;;;;;5037102;28;20128;-77
2021/06/04 00:45:47;;;;;;;50.38;28.05;;;18.20;99.20;;;;;;5040336;28;20107;-78
2021/06/04 00:48:15;;;;;;;47.75;27.23;;;18.20;99.20;;;;;;5043000;28;20099;-78
2021/06/04 00:50:46;;;;;;;49.55;28.67;;;18.10;99.20;;;;;;5035152;28;20045;-77
2021/06/04 00:53:15;;;;;;;50.85;28.58;;;18.20;99.20;;;;;;5071903;28;20028;-77
2021/06/04 00:55:42;;;;;;;46.13;28.77;;;18.10;99.20;;;;;;5036519;28;20056;-77
2021/06/04 00:58:11;;;;;;;46.58;28.42;;;18.10;99.20;;;;;;5056859;28;20045;-78
2021/06/04 01:00:48;;;;;;;45.05;27.23;;;18.10;99.50;;;;;;5038370;28;20155;-78
2021/06/04 01:03:15;;;;;;;48.90;27.27;;;18.10;99.40;;;;;;5058530;28;20049;-78
2021/06/04 01:05:43;;;;;;;46.88;27.70;;;18.10;99.40;;;;;;5039386;28;20057;-78
2021/06/04 01:08:30;;;;;;;43.10;25.73;;;18.10;99.30;;;;;;5039687;28;20048;-78
2021/06/04 01:11:14;;;;;;;43.13;26.42;;;18.10;99.40;;;;;;5044585;28;20514;-78
2021/06/04 01:14:11;;;;;;;42.03;25.30;;;18.00;99.50;;;;;;5054169;28;20044;-77
2021/06/04 01:16:50;;;;;;;37.10;22.77;;;18.00;99.60;;;;;;5072851;28;20075;-77
2021/06/04 01:19:53;;;;;;;42.25;24.00;;;18.00;99.60;;;;;;5075338;28;20046;-77
2021/06/04 01:22:48;;;;;;;42.85;23.02;;;18.00;99.90;;;;;;5025240;28;20053;-77
2021/06/04 01:25:45;;;;;;;42.63;26.15;;;18.00;99.60;;;;;;5072449;28;20059;-78
2021/06/04 01:28:25;;;;;;;44.90;23.80;;;18.10;99.70;;;;;;5055726;28;20140;-77
2021/06/04 01:31:17;;;;;;;47.30;25.00;;;18.10;99.80;;;;;;5038517;28;20055;-78
2021/06/04 01:33:52;;;;;;;42.85;24.05;;;18.00;99.70;;;;;;5055336;28;20053;-78
2021/06/04 01:36:23;;;;;;;42.85;23.23;;;18.00;99.80;;;;;;5074294;28;20045;-78
2021/06/04 01:38:51;;;;;;;41.63;23.90;;;18.00;99.70;;;;;;5038564;28;20049;-78
2021/06/04 01:41:23;;;;;;;37.47;23.48;;;18.00;99.70;;;;;;5038129;28;20048;-77
2021/06/04 01:43:56;;;;;;;38.70;23.40;;;18.00;99.80;;;;;;5054668;28;20412;-78
2021/06/04 01:46:39;;;;;;;34.35;22.05;;;18.00;99.80;;;;;;5040969;28;20055;-78
2021/06/04 01:49:18;;;;;;;40.53;24.50;;;17.90;99.80;;;;;;5042409;28;20049;-78
2021/06/04 01:51:53;;;;;;;39.83;23.58;;;17.90;99.90;;;;;;5030409;28;20045;-78
2021/06/04 01:54:37;;;;;;;38.05;22.88;;;17.90;99.90;;;;;;5042054;28;20888;-78
2021/06/04 01:57:09;;;;;;;48.38;24.70;;;17.80;99.90;;;;;;5039091;28;20388;-78
2021/06/04 01:59:41;;;;;;;41.10;24.13;;;17.80;99.90;;;;;;5045480;28;20050;-77
2021/06/04 02:02:10;;;;;;;40.38;24.67;;;17.80;99.90;;;;;;5037341;28;20053;-77
2021/06/04 02:04:41;;;;;;;47.00;25.60;;;17.70;99.90;;;;;;5047154;28;20053;-77
2021/06/04 02:07:10;;;;;;;40.58;24.55;;;17.60;99.90;;;;;;5041784;28;20060;-78
2021/06/04 02:09:38;;;;;;;42.75;24.80;;;17.60;99.90;;;;;;5038287;28;20059;-78
2021/06/04 02:12:06;;;;;;;42.40;25.52;;;17.50;99.90;;;;;;5040392;28;20162;-77
2021/06/04 02:14:40;;;;;;;45.42;27.13;;;17.40;99.90;;;;;;5040070;28;20041;-77
2021/06/04 02:17:46;;;;;;;47.08;25.42;;;17.40;99.90;;;;;;5035838;28;20418;-77
2021/06/04 02:20:19;;;;;;;43.95;25.67;;;17.30;99.90;;;;;;5040905;28;20049;-78
2021/06/04 02:22:57;;;;;;;46.47;24.75;;;17.30;99.90;;;;;;5037268;28;20049;-78
2021/06/04 02:25:27;;;;;;;47.22;26.85;;;17.30;99.90;;;;;;5057103;28;20480;-77
2021/06/04 02:28:03;;;;;;;48.20;26.85;;;17.20;99.90;;;;;;5039168;28;20059;-78
2021/06/04 02:30:56;;;;;;;52.75;26.73;;;17.20;99.90;;;;;;5043370;28;20631;-78
2021/06/04 02:33:29;;;;;;;48.07;26.50;;;17.20;99.90;;;;;;5037213;28;20485;-77
2021/06/04 02:36:00;;;;;;;44.00;25.58;;;17.10;99.90;;;;;;5041008;28;20549;-77
2021/06/04 02:38:32;;;;;;;49.88;28.50;;;17.10;99.90;;;;;;5054576;28;20482;-78
2021/06/04 02:41:08;;;;;;;49.13;26.65;;;17.10;99.90;;;;;;5042307;28;20056;-77
2021/06/04 02:43:48;;;;;;;48.30;26.98;;;17.10;99.90;;;;;;5054594;28;20056;-77
2021/06/04 02:46:35;;;;;;;40.20;24.30;;;17.10;99.90;;;;;;5065699;28;20052;-77
2021/06/04 02:49:05;;;;;;;49.50;25.45;;;17.00;99.90;;;;;;5056843;28;20049;-78
2021/06/04 02:51:36;;;;;;;44.35;25.30;;;17.00;99.90;;;;;;5038793;28;20495;-78
2021/06/04 02:54:14;;;;;;;43.83;25.23;;;16.90;99.90;;;;;;5040539;28;20155;-77
2021/06/04 02:56:50;;;;;;;46.45;26.67;;;16.90;99.90;;;;;;5067183;28;20049;-80
2021/06/04 02:59:24;;;;;;;47.78;26.73;;;16.90;99.90;;;;;;5041213;28;20049;-79
2021/06/04 03:01:55;;;;;;;49.08;26.23;;;16.80;99.90;;;;;;5042394;28;20125;-79
2021/06/04 03:04:24;;;;;;;53.83;28.38;;;16.80;99.90;;;;;;5041332;28;20051;-79
2021/06/04 03:06:57;;;;;;;51.90;26.75;;;16.80;99.90;;;;;;5040596;28;20049;-79
2021/06/04 03:09:28;;;;;;;55.22;27.63;;;16.70;99.90;;;;;;5040301;28;20045;-78
2021/06/04 03:12:00;;;;;;;55.17;29.48;;;16.70;99.90;;;;;;5037024;28;20053;-79
2021/06/04 03:14:27;;;;;;;54.55;27.80;;;16.70;99.90;;;;;;5040071;28;20052;-79
2021/06/04 03:16:56;;;;;;;56.35;27.63;;;16.70;99.90;;;;;;5039732;28;20523;-79
2021/06/04 03:19:24;;;;;;;55.22;28.38;;;16.70;99.90;;;;;;5034575;28;20048;-79
2021/06/04 03:21:59;;;;;;;53.30;27.80;;;16.70;99.90;;;;;;5039416;28;20041;-79
2021/06/04 03:24:32;;;;;;;56.80;28.25;;;16.70;99.90;;;;;;5044930;28;20079;-79
2021/06/04 03:27:00;;;;;;;53.25;27.83;;;16.60;99.90;;;;;;5042388;28;20057;-79
2021/06/04 03:29:28;;;;;;;52.45;28.52;;;16.60;99.90;;;;;;5046120;28;20049;-79
2021/06/04 03:31:58;;;;;;;49.22;28.05;;;16.60;99.90;;;;;;5026593;28;20052;-79
2021/06/04 03:34:26;;;;;;;57.63;28.73;;;16.60;99.90;;;;;;5032571;28;20060;-79
2021/06/04 03:36:56;;;;;;;51.38;27.77;;;16.60;99.90;;;;;;5045831;28;20045;-78
2021/06/04 03:39:34;;;;;;;50.45;27.13;;;16.60;99.90;;;;;;5078393;28;20112;-78
2021/06/04 03:42:01;;;;;;;50.25;26.73;;;16.60;99.90;;;;;;5043614;28;20049;-78
2021/06/04 03:44:31;;;;;;;52.10;27.17;;;16.60;99.90;;;;;;5045702;28;20408;-79
2021/06/04 03:46:58;;;;;;;49.83;27.95;;;16.70;99.90;;;;;;5045846;28;22003;-79
2021/06/04 03:49:29;;;;;;;47.65;27.92;;;16.70;99.90;;;;;;5077213;28;20048;-79
2021/06/04 03:51:58;;;;;;;48.53;25.92;;;16.70;99.90;;;;;;5042163;28;20061;-79
2021/06/04 03:54:30;;;;;;;54.20;27.88;;;16.80;99.90;;;;;;5058172;28;20515;-80
2021/06/04 03:56:59;;;;;;;48.17;25.92;;;16.90;99.90;;;;;;5043174;28;20044;-79
2021/06/04 03:59:25;;;;;;;43.83;25.38;;;16.90;99.90;;;;;;5042594;28;20053;-77
2021/06/04 04:01:57;;;;;;;45.55;25.35;;;16.90;99.90;;;;;;5074442;28;20124;-78
2021/06/04 04:04:25;;;;;;;42.10;25.13;;;17.00;99.90;;;;;;5037671;28;20053;-79
2021/06/04 04:06:52;;;;;;;48.15;25.85;;;16.90;99.90;;;;;;5041991;28;20132;-80
2021/06/04 04:09:19;;;;;;;40.47;24.52;;;17.00;99.90;;;;;;5046508;28;20049;-78
2021/06/04 04:11:49;;;;;;;45.83;23.30;;;16.90;99.90;;;;;;5049395;28;20132;-79
2021/06/04 04:14:18;;;;;;;39.83;24.25;;;17.00;99.90;;;;;;5057215;28;20052;-79
2021/06/04 04:16:44;;;;;;;43.05;23.95;;;17.00;99.90;;;;;;5059208;28;20985;-79
2021/06/04 04:19:11;;;;;;;40.22;24.33;;;17.00;99.90;;;;;;5045195;28;20055;-79
2021/06/04 04:21:42;;;;;;;39.00;23.35;;;17.00;99.90;;;;;;5043263;28;20136;-79
2021/06/04 04:24:17;;;;;;;41.33;23.02;;;17.10;99.90;;;;;;5040447;28;20065;-79
2021/06/04 04:26:45;;;;;;;36.42;22.98;;;17.10;99.90;;;;;;5043933;28;20052;-80
2021/06/04 04:29:13;;;;;;;41.28;22.73;;;17.20;99.90;;;;;;5055584;28;20079;-78
2021/06/04 04:31:44;;;;;;;43.08;23.13;;;17.20;99.90;;;;;;5045889;28;20734;-79
2021/06/04 04:34:11;;;;;;;44.10;22.65;;;17.30;99.90;;;;;;5044181;28;20096;-79
2021/06/04 04:36:42;;;;;;;41.20;23.48;;;17.40;99.90;;;;;;5043468;28;20440;-79
2021/06/04 04:39:14;;;;;;;40.85;24.80;;;17.40;99.90;;;;;;5045421;28;20424;-77
2021/06/04 04:41:40;;;;;;;37.92;22.95;;;17.40;99.90;;;;;;5041472;28;20061;-77
2021/06/04 04:44:08;;;;;;;38.05;23.35;;;17.50;99.90;;;;;;5041760;28;20059;-79
2021/06/04 04:46:35;;;;;;;41.33;23.38;;;17.60;99.90;;;;;;5041206;28;20113;-78
2021/06/04 04:49:02;;;;;;;43.45;23.75;;;17.60;99.90;;;;;;5040144;28;20152;-77
2021/06/04 04:51:31;;;;;;;44.03;23.60;;;17.70;99.90;;;;;;5037849;28;20041;-78
2021/06/04 04:53:58;;;;;;;37.45;21.73;;;17.80;99.90;;;;;;5037228;28;20057;-78
2021/06/04 04:56:26;;;;;;;38.65;22.27;;;17.80;99.90;;;;;;5043880;28;20417;-78
2021/06/04 04:58:53;;;;;;;41.13;20.52;;;17.90;99.90;;;;;;5039406;28;20078;-78
2021/06/04 05:01:21;;;;;;;36.08;21.73;;;18.00;99.90;;;;;;5037120;28;20067;-79
2021/06/04 05:03:48;;;;;;;39.00;20.42;;;18.10;99.90;;;;;;5058483;28;20049;-78
2021/06/04 05:06:15;;;;;;;36.30;20.95;;;18.10;99.90;;;;;;5040674;28;20045;-78
2021/06/04 05:08:42;;;;;;;35.88;20.50;;;18.10;99.90;;;;;;5040918;28;20049;-78
2021/06/04 05:11:09;;;;;;;34.25;20.90;;;18.20;99.90;;;;;;5038588;28;20049;-77
2021/06/04 05:13:36;;;;;;;38.28;21.65;;;18.20;99.90;;;;;;5041359;28;20048;-79
2021/06/04 05:16:04;;;;;;;37.78;21.40;;;18.30;99.90;;;;;;5039738;28;21103;-77
2021/06/04 05:18:33;;;;;;;35.58;21.55;;;18.50;99.90;;;;;;5041249;28;20049;-78
2021/06/04 05:21:00;;;;;;;38.75;22.88;;;18.60;99.90;;;;;;5038908;28;20088;-77
2021/06/04 05:23:27;;;;;;;37.60;20.85;;;18.60;99.90;;;;;;5039007;28;20056;-78
2021/06/04 05:25:56;;;;;;;41.05;21.88;;;18.70;99.90;;;;;;5043152;28;20508;-77
2021/06/04 05:28:24;;;;;;;35.25;22.42;;;18.80;99.90;;;;;;5038672;28;20041;-78
2021/06/04 05:30:56;;;;;;;40.05;22.85;;;18.80;99.90;;;;;;5029347;28;20041;-80
2021/06/04 05:33:31;;;;;;;36.20;22.70;;;18.80;99.90;;;;;;5039374;28;20041;-79
2021/06/04 05:36:26;;;;;;;41.60;22.00;;;18.80;99.90;;;;;;5029265;28;20053;-79
2021/06/04 05:38:53;;;;;;;36.83;22.80;;;18.90;99.90;;;;;;5041907;28;20080;-78
2021/06/04 05:41:20;;;;;;;36.47;22.15;;;19.00;99.90;;;;;;5038693;28;20487;-78
2021/06/04 05:43:56;;;;;;;35.90;20.67;;;19.10;99.90;;;;;;5038726;28;20055;-79
2021/06/04 05:46:23;;;;;;;38.67;22.85;;;19.20;99.90;;;;;;5042886;28;20064;-78
2021/06/04 05:48:51;;;;;;;39.60;22.05;;;19.30;99.90;;;;;;5038141;28;20045;-78
2021/06/04 05:51:26;;;;;;;36.78;20.85;;;19.40;99.80;;;;;;5075712;28;20052;-78
2021/06/04 05:53:53;;;;;;;34.35;20.77;;;19.50;99.70;;;;;;5072021;28;20165;-78
2021/06/04 05:56:22;;;;;;;34.28;19.95;;;19.60;99.50;;;;;;5073229;28;20428;-77
2021/06/04 05:58:51;;;;;;;32.15;19.80;;;19.60;99.30;;;;;;5052811;28;20052;-78
2021/06/04 06:01:23;;;;;;;35.08;20.05;;;19.70;98.70;;;;;;5042569;28;20053;-79
2021/06/04 06:03:53;;;;;;;33.95;21.45;;;19.70;98.50;;;;;;5053102;28;20127;-78
2021/06/04 06:06:20;;;;;;;34.67;20.50;;;19.70;98.80;;;;;;5038424;28;20510;-79
2021/06/04 06:08:57;;;;;;;34.25;18.70;;;19.80;98.70;;;;;;5057070;28;20099;-78
2021/06/04 06:11:27;;;;;;;29.75;18.38;;;19.90;98.60;;;;;;5041533;28;20068;-79
2021/06/04 06:13:57;;;;;;;30.80;20.35;;;20.10;98.20;;;;;;5053879;28;20378;-79
2021/06/04 06:16:29;;;;;;;35.45;19.40;;;20.20;98.10;;;;;;5039944;28;20121;-78
2021/06/04 06:18:56;;;;;;;36.33;19.33;;;20.30;97.70;;;;;;5039058;28;20044;-79
2021/06/04 06:21:24;;;;;;;33.55;19.02;;;20.40;98.00;;;;;;5062920;28;20515;-79
2021/06/04 06:23:51;;;;;;;30.48;20.20;;;20.50;97.50;;;;;;5072337;28;20048;-78
2021/06/04 06:26:23;;;;;;;31.70;19.10;;;20.70;97.10;;;;;;5062285;28;20127;-79
2021/06/04 06:28:52;;;;;;;30.42;18.40;;;20.80;97.10;;;;;;5053797;28;20537;-78
2021/06/04 06:31:22;;;;;;;31.30;19.55;;;21.00;96.90;;;;;;5056829;28;20049;-78
2021/06/04 06:33:49;;;;;;;27.50;18.85;;;21.10;96.60;;;;;;5040115;28;20048;-79
2021/06/04 06:36:26;;;;;;;29.70;18.40;;;21.30;96.20;;;;;;5040045;28;20059;-79
2021/06/04 06:38:55;;;;;;;31.70;18.35;;;21.40;96.10;;;;;;5041794;28;20048;-78
2021/06/04 06:41:22;;;;;;;30.77;18.75;;;21.60;95.70;;;;;;5068656;28;20045;-79
2021/06/04 06:43:51;;;;;;;31.33;18.45;;;21.70;95.10;;;;;;5043441;28;20105;-78
2021/06/04 06:46:20;;;;;;;28.70;17.30;;;21.70;94.70;;;;;;5071740;28;20059;-78
2021/06/04 06:48:48;;;;;;;32.80;17.50;;;21.80;94.60;;;;;;5038146;28;20048;-78
2021/06/04 06:51:15;;;;;;;27.45;16.23;;;21.90;94.90;;;;;;5046317;28;20057;-79
2021/06/04 06:53:42;;;;;;;26.33;17.17;;;22.10;94.90;;;;;;5041748;28;20027;-78
2021/06/04 06:56:12;;;;;;;30.58;17.15;;;22.20;94.00;;;;;;5039045;28;20057;-79
2021/06/04 06:58:40;;;;;;;27.27;16.48;;;22.30;93.80;;;;;;5053565;28;20041;-79
2021/06/04 07:01:09;;;;;;;27.90;17.25;;;22.40;94.10;;;;;;5041404;28;20053;-79
2021/06/04 07:03:38;;;;;;;24.27;15.80;;;22.60;94.00;;;;;;5040707;28;21154;-80
2021/06/04 07:06:21;;;;;;;24.70;16.30;;;22.80;93.50;;;;;;5030297;28;20053;-77
2021/06/04 07:08:49;;;;;;;27.60;14.88;;;23.00;93.40;;;;;;5036633;28;20045;-77
2021/06/04 07:11:23;;;;;;;24.67;14.75;;;23.10;92.30;;;;;;5039225;28;20056;-76
2021/06/04 07:13:53;;;;;;;21.55;14.50;;;23.10;92.60;;;;;;5034227;28;20072;-77
2021/06/04 07:16:20;;;;;;;26.63;14.95;;;23.20;92.60;;;;;;5037677;28;20044;-76
2021/06/04 07:18:52;;;;;;;25.90;16.40;;;23.30;91.70;;;;;;5045449;28;20071;-77
2021/06/04 07:21:22;;;;;;;24.63;15.10;;;23.30;92.10;;;;;;5032563;28;20051;-77
2021/06/04 07:23:49;;;;;;;23.30;15.45;;;23.30;91.90;;;;;;5043271;28;20091;-79
2021/06/04 07:26:18;;;;;;;24.92;14.07;;;23.40;92.10;;;;;;5039937;28;20040;-77
2021/06/04 07:28:47;;;;;;;22.83;15.05;;;23.50;92.40;;;;;;5038620;28;20045;-77
2021/06/04 07:31:16;;;;;;;25.60;14.52;;;23.70;92.10;;;;;;5020568;28;20052;-77
2021/06/04 07:33:51;;;;;;;22.13;14.77;;;23.90;91.70;;;;;;5032540;28;20059;-79
2021/06/04 07:36:22;;;;;;;25.17;14.85;;;24.00;91.70;;;;;;5049329;28;20043;-76
2021/06/04 07:38:49;;;;;;;25.73;14.10;;;24.10;90.70;;;;;;5043738;28;20061;-78
2021/06/04 07:41:17;;;;;;;21.08;14.13;;;24.20;90.40;;;;;;5045964;28;20048;-78
2021/06/04 07:43:45;;;;;;;23.92;15.10;;;24.30;90.50;;;;;;5042203;28;20052;-78
2021/06/04 07:46:14;;;;;;;25.25;15.10;;;24.40;90.50;;;;;;5037040;28;20471;-78
2021/06/04 07:48:41;;;;;;;20.80;13.82;;;24.50;90.70;;;;;;5035473;28;20048;-78
2021/06/04 07:51:13;;;;;;;27.88;14.55;;;24.70;90.40;;;;;;5036441;28;20072;-78
2021/06/04 07:53:40;;;;;;;24.38;14.80;;;24.70;90.20;;;;;;5036944;28;20063;-77
2021/06/04 07:56:10;;;;;;;21.55;13.70;;;24.90;89.00;;;;;;5038606;28;20057;-77
2021/06/04 07:58:37;;;;;;;20.85;13.30;;;24.90;90.60;;;;;;5039611;28;20056;-77
2021/06/04 08:01:05;;;;;;;21.02;13.73;;;25.10;88.80;;;;;;5059674;28;20049;-77
2021/06/04 08:03:34;;;;;;;19.88;13.85;;;25.00;86.00;;;;;;5042763;28;20049;-77
2021/06/04 08:06:03;;;;;;;19.77;13.00;;;25.00;88.90;;;;;;5038949;28;20045;-78
2021/06/04 08:08:33;;;;;;;19.23;13.68;;;25.00;88.50;;;;;;5038116;28;20053;-77
2021/06/04 08:11:01;;;;;;;20.83;14.05;;;25.20;88.30;;;;;;5033553;28;20061;-77
2021/06/04 08:13:28;;;;;;;19.77;13.82;;;25.30;87.90;;;;;;5035273;28;20053;-77
2021/06/04 08:16:07;;;;;;;16.83;12.40;;;25.40;86.80;;;;;;5031477;28;20519;-77
2021/06/04 08:18:35;;;;;;;24.30;14.43;;;25.50;88.80;;;;;;5038642;28;20492;-78
2021/06/04 08:21:11;;;;;;;25.05;14.27;;;25.60;86.80;;;;;;5041117;28;20049;-77
2021/06/04 08:23:40;;;;;;;17.73;13.45;;;25.70;87.60;;;;;;5037764;28;20042;-78
2021/06/04 08:26:10;;;;;;;18.02;11.35;;;25.80;85.90;;;;;;5040275;28;20049;-78
2021/06/04 08:28:38;;;;;;;18.42;11.68;;;25.90;83.80;;;;;;5039932;28;20055;-78
2021/06/04 08:31:08;;;;;;;15.20;10.05;;;25.80;82.50;;;;;;5055796;28;20484;-79
2021/06/04 08:33:38;;;;;;;13.52;10.90;;;25.80;86.10;;;;;;5056681;28;20506;-78
2021/06/04 08:36:08;;;;;;;13.52;10.10;;;25.90;84.40;;;;;;5041168;28;20605;-78
2021/06/04 08:38:39;;;;;;;16.08;10.10;;;26.00;84.20;;;;;;5046414;28;20049;-79
2021/06/04 08:41:32;;;;;;;13.57;10.02;;;26.10;83.50;;;;;;5032826;28;24909;-78
2021/06/04 08:44:20;;;;;;;18.58;9.88;;;26.20;85.20;;;;;;5070786;28;20140;-78
2021/06/04 08:46:54;;;;;;;12.70;8.25;;;26.20;83.50;;;;;;5038926;28;20049;-78
2021/06/04 08:49:52;;;;;;;17.42;8.93;;;26.20;82.00;;;;;;5039477;28;20136;-78
2021/06/04 08:52:39;;;;;;;15.43;8.32;;;26.10;82.90;;;;;;5041663;28;20048;-78
2021/06/04 08:55:27;;;;;;;13.55;7.38;;;26.10;82.30;;;;;;5037365;28;20053;-78
2021/06/04 08:58:39;;;;;;;10.13;7.07;;;26.20;82.10;;;;;;5035535;28;20045;-79
2021/06/04 09:01:18;;;;;;;10.10;6.78;;;26.30;83.20;;;;;;5039834;28;20127;-78
2021/06/04 09:04:11;;;;;;;9.25;6.00;;;26.60;83.20;;;;;;5038510;28;20736;-77
2021/06/04 09:07:03;;;;;;;11.67;6.87;;;26.70;81.40;;;;;;5041033;28;20056;-78
2021/06/04 09:09:35;;;;;;;12.45;7.03;;;26.90;80.70;;;;;;5039963;28;20300;-78
2021/06/04 09:12:23;;;;;;;10.98;6.35;;;27.00;79.30;;;;;;5037416;28;20052;-78
2021/06/04 09:14:52;;;;;;;9.68;7.20;;;27.00;79.80;;;;;;5039125;28;20131;-78
2021/06/04 09:17:34;;;;;;;11.98;7.15;;;27.10;79.40;;;;;;5069891;28;20053;-78
2021/06/04 09:20:30;;;;;;;8.40;6.22;;;27.20;80.20;;;;;;5037918;28;20040;-78
2021/06/04 09:23:02;;;;;;;11.15;7.10;;;27.30;80.00;;;;;;5053098;28;20049;-78
2021/06/04 09:25:34;;;;;;;15.85;8.55;;;27.50;77.50;;;;;;5031130;28;20483;-79
2021/06/04 09:28:10;;;;;;;15.43;7.18;;;27.50;76.40;;;;;;5058984;28;20042;-78
2021/06/04 09:30:39;;;;;;;8.93;6.85;;;27.50;78.00;;;;;;5067590;28;20054;-78
2021/06/04 09:33:23;;;;;;;8.93;6.32;;;27.50;77.10;;;;;;5037195;28;20057;-78
2021/06/04 09:35:59;;;;;;;12.95;7.72;;;27.60;76.00;;;;;;5053453;28;20056;-79
2021/06/04 09:38:32;;;;;;;10.40;7.07;;;27.70;76.30;;;;;;5069401;28;20052;-78
2021/06/04 09:41:33;;;;;;;;;;;27.90;77.50;;;;;;5036363;28;20045;-78
2021/06/04 09:44:20;;;;;;;12.43;7.05;;;28.00;77.10;;;;;;5025401;28;19928;-79
2021/06/04 09:47:04;;;;;;;8.18;6.03;;;28.20;73.80;;;;;;5052184;28;20072;-79
2021/06/04 09:49:43;;;;;;;11.23;5.53;;;28.20;72.90;;;;;;5042810;28;20091;-78
2021/06/04 09:52:25;;;;;;;9.63;5.60;;;28.10;72.30;;;;;;5064208;28;20046;-78
2021/06/04 09:55:21;;;;;;;10.73;5.85;;;28.10;73.40;;;;;;5036454;28;20049;-78
2021/06/04 09:58:14;;;;;;;9.48;6.45;;;28.20;72.80;;;;;;5071247;28;20820;-78
2021/06/04 10:00:57;;;;;;;5.90;5.28;;;28.30;71.90;;;;;;5043410;28;20164;-78
2021/06/04 10:03:28;;;;;;;9.05;5.53;;;28.10;71.70;;;;;;5038581;28;20051;-78
2021/06/04 10:06:07;;;;;;;15.18;5.90;;;28.20;74.30;;;;;;5046120;28;20099;-77
2021/06/04 10:09:00;;;;;;;9.32;6.28;;;28.40;73.60;;;;;;5065023;28;20055;-77
2021/06/04 10:11:43;;;;;;;9.60;6.28;;;28.40;72.10;;;;;;5033924;28;20901;-77
2021/06/04 10:14:25;;;;;;;9.02;7.13;;;28.50;75.00;;;;;;5048284;28;20053;-77
2021/06/04 10:17:36;;;;;;;14.88;7.00;;;28.70;72.80;;;;;;5067162;28;20068;-77
2021/06/04 10:19:50;;;;;;;10.90;7.82;;;28.80;73.60;;;;;;5035204;28;20049;-76
2021/06/04 10:22:36;;;;;;;12.52;8.23;;;28.80;72.40;;;;;;5037738;28;20056;-77
2021/06/04 10:25:06;;;;;;;19.92;10.38;;;28.90;72.50;;;;;;5033689;28;20480;-76
2021/06/04 10:27:35;;;;;;;11.00;7.70;;;29.00;72.50;;;;;;5061247;28;20059;-77
2021/06/04 10:30:20;;;;;;;10.93;7.68;;;29.00;74.40;;;;;;5036439;28;20140;-77
2021/06/04 10:32:55;;;;;;;8.88;7.60;;;29.10;73.20;;;;;;5065979;28;20047;-77
2021/06/04 10:35:37;;;;;;;9.93;6.95;;;29.30;70.70;;;;;;5039207;28;20060;-77
2021/06/04 10:38:15;;;;;;;10.52;6.88;;;29.50;70.00;;;;;;5031154;28;20074;-77
2021/06/04 10:40:52;;;;;;;8.35;6.35;;;29.60;70.00;;;;;;5035431;28;20178;-77
2021/06/04 10:43:55;;;;;;;9.18;6.85;;;29.60;69.40;;;;;;5036690;28;20046;-77
2021/06/04 10:46:46;;;;;;;14.05;8.43;;;29.80;69.40;;;;;;5032031;28;20056;-77
2021/06/04 10:49:19;;;;;;;11.80;8.10;;;29.90;67.90;;;;;;5035535;28;20048;-76
2021/06/04 10:51:52;;;;;;;;;;;29.80;67.80;;;;;;5035517;28;20052;-76
2021/06/04 10:54:29;;;;;;;15.18;9.27;;;29.70;67.50;;;;;;5038705;28;19921;-77
2021/06/04 10:57:09;;;;;;;16.88;10.63;;;29.60;68.90;;;;;;5038208;28;20131;-77
2021/06/04 11:00:04;;;;;;;15.38;10.57;;;29.40;69.10;;;;;;5064128;28;20056;-77
2021/06/04 11:02:36;;;;;;;15.00;9.63;;;29.30;69.40;;;;;;5030867;28;20408;-77
2021/06/04 11:05:06;;;;;;;;;;;29.30;68.70;;;;;;5031492;28;20104;-77
2021/06/04 11:08:05;;;;;;;14.82;9.13;;;29.30;67.60;;;;;;5040257;28;20371;-79
2021/06/04 11:10:59;;;;;;;16.73;9.18;;;29.40;68.90;;;;;;5059781;28;20036;-79
2021/06/04 11:13:44;;;;;;;;;;;29.70;67.80;;;;;;5035455;28;20048;-77
2021/06/04 11:16:29;;;;;;;14.18;8.75;;;29.90;67.00;;;;;;5048354;28;19931;-77
2021/06/04 11:19:08;;;;;;;11.73;7.60;;;30.00;65.30;;;;;;5032987;28;20132;-77
2021/06/04 11:21:40;;;;;;;14.55;9.00;;;30.10;67.70;;;;;;5046371;28;20128;-77
2021/06/04 11:24:17;;;;;;;11.95;8.43;;;30.30;64.10;;;;;;5064692;28;20587;-77
2021/06/04 11:26:48;;;;;;;7.72;6.85;;;30.30;64.30;;;;;;5033594;28;20045;-78
2021/06/04 11:29:18;;;;;;;14.02;8.05;;;30.50;64.70;;;;;;5033465;28;20045;-77
2021/06/04 11:32:01;;;;;;;7.78;6.72;;;30.60;65.30;;;;;;5063356;28;20071;-78
2021/06/04 11:34:38;;;;;;;11.85;9.23;;;30.70;65.50;;;;;;5034718;28;20045;-78
2021/06/04 11:37:12;;;;;;;8.93;7.35;;;31.00;62.90;;;;;;5031367;28;20389;-77
2021/06/04 11:39:45;;;;;;;12.43;7.90;;;31.20;64.90;;;;;;5033871;28;20049;-77
2021/06/04 11:42:13;;;;;;;;;;;31.60;62.60;;;;;;5033644;28;20056;-77
2021/06/04 11:44:53;;;;;;;13.00;8.38;;;31.80;58.70;;;;;;5064918;28;19924;-78
2021/06/04 11:47:19;;;;;;;12.80;9.15;;;31.70;61.70;;;;;;5069400;28;20131;-77
2021/06/04 11:49:55;;;;;;;10.07;8.52;;;31.70;61.20;;;;;;5036834;28;20057;-78
2021/06/04 11:52:34;;;;;;;13.05;8.15;;;31.80;59.00;;;;;;5037156;28;20050;-77
2021/06/04 11:55:11;;;;;;;12.35;6.50;;;31.90;59.30;;;;;;5038578;28;20068;-78
2021/06/04 11:57:55;;;;;;;10.40;6.90;;;32.20;59.90;;;;;;5036927;28;20492;-77
2021/06/04 12:00:25;;;;;;;7.88;6.88;;;32.60;58.90;;;;;;5066304;28;20038;-77
2021/06/04 12:03:04;;;;;;;9.65;6.65;;;33.20;58.00;;;;;;5049133;28;20060;-78
2021/06/04 12:05:39;;;;;;;8.50;6.30;;;33.90;58.40;;;;;;5051864;28;20060;-78
2021/06/04 12:08:15;;;;;;;9.30;5.93;;;34.70;58.10;;;;;;5035559;28;20064;-77
2021/06/04 12:11:00;;;;;;;9.18;5.45;;;35.50;55.20;;;;;;5037443;28;20401;-78
2021/06/04 12:14:01;;;;;;;7.57;6.00;;;36.00;54.20;;;;;;5037321;28;20542;-78
2021/06/04 12:16:31;;;;;;;7.15;4.90;;;36.40;52.90;;;;;;5035763;28;20107;-78
2021/06/04 12:19:14;;;;;;;5.25;4.75;;;37.00;50.70;;;;;;5036191;28;20152;-78
2021/06/04 12:21:41;;;;;;;6.63;4.97;;;37.40;48.40;;;;;;5069823;28;20075;-78
2021/06/04 12:24:20;;;;;;;9.65;5.07;;;37.60;48.00;;;;;;5036977;28;20067;-78
2021/06/04 12:26:59;;;;;;;8.15;5.22;;;37.80;48.80;;;;;;5035632;28;20040;-78
2021/06/04 12:29:26;;;;;;;6.25;4.85;;;37.70;48.30;;;;;;5068965;28;20397;-78
2021/06/04 12:32:09;;;;;;;5.38;4.88;;;37.60;49.40;;;;;;5051235;28;20057;-78
2021/06/04 12:34:40;;;;;;;7.10;4.60;;;38.00;47.60;;;;;;5038831;28;20049;-78
2021/06/04 12:37:10;;;;;;;6.80;4.68;;;38.40;49.00;;;;;;5050528;28;20132;-78
2021/06/04 12:39:42;;;;;;;5.78;4.47;;;38.80;46.70;;;;;;5052556;28;20045;-78
2021/06/04 12:42:24;;;;;;;6.13;4.90;;;39.30;46.80;;;;;;5038063;28;20563;-78
2021/06/04 12:44:57;;;;;;;9.15;6.15;;;39.50;46.10;;;;;;5070309;28;20049;-78
2021/06/04 12:47:32;;;;;;;5.63;4.45;;;39.70;45.50;;;;;;5052241;28;20057;-78
2021/06/04 12:50:34;;;;;;;7.25;5.95;;;39.90;46.60;;;;;;5038526;28;20056;-79
2021/06/04 12:53:16;;;;;;;9.05;6.60;;;40.10;44.70;;;;;;5031791;28;20041;-78
2021/06/04 12:55:50;;;;;;;10.50;7.15;;;40.20;44.00;;;;;;5042980;28;20594;-78
2021/06/04 12:58:39;;;;;;;10.43;8.48;;;40.00;43.00;;;;;;5036333;28;20045;-78
2021/06/04 13:01:22;;;;;;;8.00;7.20;;;39.40;43.80;;;;;;5038682;28;20056;-78
2021/06/04 13:03:58;;;;;;;9.23;6.65;;;39.20;45.60;;;;;;5035258;28;20055;-78
2021/06/04 13:06:37;;;;;;;9.60;8.68;;;39.40;44.00;;;;;;5043379;28;20057;-78
2021/06/04 13:09:06;;;;;;;11.15;9.70;;;39.90;44.30;;;;;;5036668;28;20094;-78